sensor_id;sensor_type;location;lat;lon;timestamp;temperature;humidity
4604;DHT22;2314;48.272;11.562;2022-10-16T00:00:00;11.90;99.90
4604;DHT22;2314;48.272;11.562;2022-10-16T00:02:27;11.90;99.90
4604;DHT22;2314;48.272;11.562;2022-10-16T00:04:54;11.90;99.90
4604;DHT22;2314;48.272;11.562;2022-10-16T00:07:22;11.90;99.90
4604;DHT22;2314;48.272;11.562;2022-10-16T00:09:50;11.90;99.90
4604;DHT22;2314;48.272;11.562;2022-10-16T00:12:17;11.90;99.90
4604;DHT22;2314;48.272;11.562;2022-10-16T00:14:44;11.90;99.90
4604;DHT22;2314;48.272;11.562;2022-10-16T00:17:11;11.90;99.90
4604;DHT22;2314;48.272;11.562;2022-10-16T00:19:37;11.80;99.90
4604;DHT22;2314;48.272;11.562;2022-10-16T00:22:04;11.90;99.90
4604;DHT22;2314;48.272;11.562;2022-10-16T00:24:33;11.80;99.90
4604;DHT22;2314;48.272;11.562;2022-10-16T00:27:00;11.80;99.90
4604;DHT22;2314;48.272;11.562;2022-10-16T00:29:27;11.80;99.90
4604;DHT22;2314;48.272;11.562;2022-10-16T00:31:54;11.80;99.90
4604;DHT22;2314;48.272;11.562;2022-10-16T00:34:21;11.80;99.90
4604;DHT22;2314;48.272;11.562;2022-10-16T00:36:48;11.80;99.90
4604;DHT22;2314;48.272;11.562;2022-10-16T00:39:15;11.70;99.90
4604;DHT22;2314;48.272;11.562;2022-10-16T00:41:43;11.70;99.90
4604;DHT22;2314;48.272;11.562;2022-10-16T00:44:45;11.70;99.90
4604;DHT22;2314;48.272;11.562;2022-10-16T00:47:19;11.70;99.90
4604;DHT22;2314;48.272;11.562;2022-10-16T00:49:50;11.80;99.90
4604;DHT22;2314;48.272;11.562;2022-10-16T00:52:19;11.80;99.90
4604;DHT22;2314;48.272;11.562;2022-10-16T00:54:47;11.80;99.90
4604;DHT22;2314;48.272;11.562;2022-10-16T00:57:17;11.90;99.90
4604;DHT22;2314;48.272;11.562;2022-10-16T00:59:45;12.00;99.90
4604;DHT22;2314;48.272;11.562;2022-10-16T01:02:14;12.00;99.90
4604;DHT22;2314;48.272;11.562;2022-10-16T01:04:44;12.00;99.90
4604;DHT22;2314;48.272;11.562;2022-10-16T01:07:18;12.00;99.90
4604;DHT22;2314;48.272;11.562;2022-10-16T01:10:04;12.00;99.90
4604;DHT22;2314;48.272;11.562;2022-10-16T01:12:40;12.00;99.90
4604;DHT22;2314;48.272;11.562;2022-10-16T01:15:13;11.90;99.90
4604;DHT22;2314;48.272;11.562;2022-10-16T01:17:48;11.90;99.90
4604;DHT22;2314;48.272;11.562;2022-10-16T01:20:26;11.80;99.90
4604;DHT22;2314;48.272;11.562;2022-10-16T01:23:04;11.90;99.90
4604;DHT22;2314;48.272;11.562;2022-10-16T01:25:46;11.80;99.90
4604;DHT22;2314;48.272;11.562;2022-10-16T01:28:24;11.80;99.90
4604;DHT22;2314;48.272;11.562;2022-10-16T01:30:58;11.80;99.90
4604;DHT22;2314;48.272;11.562;2022-10-16T01:33:30;11.70;99.90
4604;DHT22;2314;48.272;11.562;2022-10-16T01:36:05;11.70;99.90
4604;DHT22;2314;48.272;11.562;2022-10-16T01:38:37;11.60;99.90
4604;DHT22;2314;48.272;11.562;2022-10-16T01:41:09;11.60;99.90
4604;DHT22;2314;48.272;11.562;2022-10-16T01:43:41;11.60;99.90
4604;DHT22;2314;48.272;11.562;2022-10-16T01:46:10;11.50;99.90
4604;DHT22;2314;48.272;11.562;2022-10-16T01:48:41;11.50;99.90
4604;DHT22;2314;48.272;11.562;2022-10-16T01:51:10;11.50;99.90
4604;DHT22;2314;48.272;11.562;2022-10-16T01:53:39;11.50;99.90
4604;DHT22;2314;48.272;11.562;2022-10-16T01:56:09;11.60;99.90
4604;DHT22;2314;48.272;11.562;2022-10-16T01:58:44;11.60;99.90
4604;DHT22;2314;48.272;11.562;2022-10-16T02:01:16;11.60;99.90
4604;DHT22;2314;48.272;11.562;2022-10-16T02:03:46;11.60;99.90
4604;DHT22;2314;48.272;11.562;2022-10-16T02:06:16;11.70;99.90
4604;DHT22;2314;48.272;11.562;2022-10-16T02:08:43;11.70;99.90
4604;DHT22;2314;48.272;11.562;2022-10-16T02:11:10;11.60;99.90
4604;DHT22;2314;48.272;11.562;2022-10-16T02:13:41;11.60;99.90
4604;DHT22;2314;48.272;11.562;2022-10-16T02:16:12;11.60;99.90
4604;DHT22;2314;48.272;11.562;2022-10-16T02:18:41;11.60;99.90
4604;DHT22;2314;48.272;11.562;2022-10-16T02:21:13;11.60;99.90
4604;DHT22;2314;48.272;11.562;2022-10-16T02:23:49;11.50;99.90
4604;DHT22;2314;48.272;11.562;2022-10-16T02:26:25;11.50;99.90
4604;DHT22;2314;48.272;11.562;2022-10-16T02:28:59;11.50;99.90
4604;DHT22;2314;48.272;11.562;2022-10-16T02:31:32;11.40;99.90
4604;DHT22;2314;48.272;11.562;2022-10-16T02:34:03;11.40;99.90
4604;DHT22;2314;48.272;11.562;2022-10-16T02:36:32;11.40;99.90
4604;DHT22;2314;48.272;11.562;2022-10-16T02:38:59;11.30;99.90
4604;DHT22;2314;48.272;11.562;2022-10-16T02:41:27;11.30;99.90
4604;DHT22;2314;48.272;11.562;2022-10-16T02:43:56;11.30;99.90
4604;DHT22;2314;48.272;11.562;2022-10-16T02:46:23;11.30;99.90
4604;DHT22;2314;48.272;11.562;2022-10-16T02:48:50;11.30;99.90
4604;DHT22;2314;48.272;11.562;2022-10-16T02:51:17;11.30;99.90
4604;DHT22;2314;48.272;11.562;2022-10-16T02:53:44;11.30;99.90
4604;DHT22;2314;48.272;11.562;2022-10-16T02:56:11;11.30;99.90
4604;DHT22;2314;48.272;11.562;2022-10-16T02:58:38;11.40;99.90
4604;DHT22;2314;48.272;11.562;2022-10-16T03:01:06;11.30;99.90
4604;DHT22;2314;48.272;11.562;2022-10-16T03:03:33;11.30;99.90
4604;DHT22;2314;48.272;11.562;2022-10-16T03:06:00;11.30;99.90
4604;DHT22;2314;48.272;11.562;2022-10-16T03:08:27;11.20;99.90
4604;DHT22;2314;48.272;11.562;2022-10-16T03:10:55;11.20;99.90
4604;DHT22;2314;48.272;11.562;2022-10-16T03:13:22;11.20;99.90
4604;DHT22;2314;48.272;11.562;2022-10-16T03:15:49;11.10;99.90
4604;DHT22;2314;48.272;11.562;2022-10-16T03:18:17;11.10;99.90
4604;DHT22;2314;48.272;11.562;2022-10-16T03:20:44;11.00;99.90
4604;DHT22;2314;48.272;11.562;2022-10-16T03:23:11;11.00;99.90
4604;DHT22;2314;48.272;11.562;2022-10-16T03:25:38;10.90;99.90
4604;DHT22;2314;48.272;11.562;2022-10-16T03:28:06;10.90;99.90
4604;DHT22;2314;48.272;11.562;2022-10-16T03:30:33;10.90;99.90
4604;DHT22;2314;48.272;11.562;2022-10-16T03:33:00;11.00;99.90
4604;DHT22;2314;48.272;11.562;2022-10-16T03:35:28;11.00;99.90
4604;DHT22;2314;48.272;11.562;2022-10-16T03:37:55;11.10;99.90
4604;DHT22;2314;48.272;11.562;2022-10-16T03:40:22;11.10;99.90
4604;DHT22;2314;48.272;11.562;2022-10-16T03:42:49;11.10;99.90
4604;DHT22;2314;48.272;11.562;2022-10-16T03:45:16;11.20;99.90
4604;DHT22;2314;48.272;11.562;2022-10-16T03:47:43;11.30;99.90
4604;DHT22;2314;48.272;11.562;2022-10-16T03:50:10;11.30;99.90
4604;DHT22;2314;48.272;11.562;2022-10-16T03:52:39;11.30;99.90
4604;DHT22;2314;48.272;11.562;2022-10-16T03:55:06;11.40;99.90
4604;DHT22;2314;48.272;11.562;2022-10-16T03:57:34;11.40;99.90
4604;DHT22;2314;48.272;11.562;2022-10-16T04:00:01;11.40;99.90
4604;DHT22;2314;48.272;11.562;2022-10-16T04:02:29;11.40;99.90
4604;DHT22;2314;48.272;11.562;2022-10-16T04:04:55;11.40;99.90
4604;DHT22;2314;48.272;11.562;2022-10-16T04:07:22;11.50;99.90
4604;DHT22;2314;48.272;11.562;2022-10-16T04:09:51;11.50;99.90
4604;DHT22;2314;48.272;11.562;2022-10-16T04:12:18;11.50;99.90
4604;DHT22;2314;48.272;11.562;2022-10-16T04:14:45;11.50;99.90
4604;DHT22;2314;48.272;11.562;2022-10-16T04:17:12;11.50;99.90
4604;DHT22;2314;48.272;11.562;2022-10-16T04:19:39;11.50;99.90
4604;DHT22;2314;48.272;11.562;2022-10-16T04:22:06;11.50;99.90
4604;DHT22;2314;48.272;11.562;2022-10-16T04:24:33;11.60;99.90
4604;DHT22;2314;48.272;11.562;2022-10-16T04:27:02;11.60;99.90
4604;DHT22;2314;48.272;11.562;2022-10-16T04:29:29;11.60;99.90
4604;DHT22;2314;48.272;11.562;2022-10-16T04:31:56;11.60;99.90
4604;DHT22;2314;48.272;11.562;2022-10-16T04:34:23;11.70;99.90
4604;DHT22;2314;48.272;11.562;2022-10-16T04:36:51;11.70;99.90
4604;DHT22;2314;48.272;11.562;2022-10-16T04:39:18;11.70;99.90
4604;DHT22;2314;48.272;11.562;2022-10-16T04:41:45;11.80;99.90
4604;DHT22;2314;48.272;11.562;2022-10-16T04:44:14;11.80;99.90
4604;DHT22;2314;48.272;11.562;2022-10-16T04:46:43;11.80;99.90
4604;DHT22;2314;48.272;11.562;2022-10-16T04:49:10;11.80;99.90
4604;DHT22;2314;48.272;11.562;2022-10-16T04:51:37;11.80;99.90
4604;DHT22;2314;48.272;11.562;2022-10-16T04:54:05;11.80;99.90
4604;DHT22;2314;48.272;11.562;2022-10-16T04:56:32;11.80;99.90
4604;DHT22;2314;48.272;11.562;2022-10-16T04:59:05;11.80;99.90
4604;DHT22;2314;48.272;11.562;2022-10-16T05:01:36;11.80;99.90
4604;DHT22;2314;48.272;11.562;2022-10-16T05:04:04;11.80;99.90
4604;DHT22;2314;48.272;11.562;2022-10-16T05:06:31;11.80;99.90
4604;DHT22;2314;48.272;11.562;2022-10-16T05:08:58;11.80;99.90
4604;DHT22;2314;48.272;11.562;2022-10-16T05:11:25;11.80;99.90
4604;DHT22;2314;48.272;11.562;2022-10-16T05:13:51;11.80;99.90
4604;DHT22;2314;48.272;11.562;2022-10-16T05:16:33;11.90;99.90
4604;DHT22;2314;48.272;11.562;2022-10-16T05:19:02;11.90;99.90
4604;DHT22;2314;48.272;11.562;2022-10-16T05:21:29;11.90;99.90
4604;DHT22;2314;48.272;11.562;2022-10-16T05:23:56;11.90;99.90
4604;DHT22;2314;48.272;11.562;2022-10-16T05:26:23;11.90;99.90
4604;DHT22;2314;48.272;11.562;2022-10-16T05:28:50;11.90;99.90
4604;DHT22;2314;48.272;11.562;2022-10-16T05:31:17;11.90;99.90
4604;DHT22;2314;48.272;11.562;2022-10-16T05:33:45;12.00;99.90
4604;DHT22;2314;48.272;11.562;2022-10-16T05:36:13;12.00;99.90
4604;DHT22;2314;48.272;11.562;2022-10-16T05:38:40;12.00;99.90
4604;DHT22;2314;48.272;11.562;2022-10-16T05:41:07;12.00;99.90
4604;DHT22;2314;48.272;11.562;2022-10-16T05:43:34;11.90;99.90
4604;DHT22;2314;48.272;11.562;2022-10-16T05:46:04;11.90;99.90
4604;DHT22;2314;48.272;11.562;2022-10-16T05:48:32;11.90;99.90
4604;DHT22;2314;48.272;11.562;2022-10-16T05:51:03;11.90;99.90
4604;DHT22;2314;48.272;11.562;2022-10-16T05:53:34;11.90;99.90
4604;DHT22;2314;48.272;11.562;2022-10-16T05:56:03;11.90;99.90
4604;DHT22;2314;48.272;11.562;2022-10-16T05:58:32;11.80;99.90
4604;DHT22;2314;48.272;11.562;2022-10-16T06:01:02;11.80;99.90
4604;DHT22;2314;48.272;11.562;2022-10-16T06:03:30;11.80;99.90
4604;DHT22;2314;48.272;11.562;2022-10-16T06:05:57;11.80;99.90
4604;DHT22;2314;48.272;11.562;2022-10-16T06:08:26;11.80;99.90
4604;DHT22;2314;48.272;11.562;2022-10-16T06:11:00;11.80;99.90
4604;DHT22;2314;48.272;11.562;2022-10-16T06:13:28;11.80;99.90
4604;DHT22;2314;48.272;11.562;2022-10-16T06:15:56;11.70;99.90
4604;DHT22;2314;48.272;11.562;2022-10-16T06:18:24;11.70;99.90
4604;DHT22;2314;48.272;11.562;2022-10-16T06:20:51;11.70;99.90
4604;DHT22;2314;48.272;11.562;2022-10-16T06:23:18;11.70;99.90
4604;DHT22;2314;48.272;11.562;2022-10-16T06:25:47;11.60;99.90
4604;DHT22;2314;48.272;11.562;2022-10-16T06:28:14;11.60;99.90
4604;DHT22;2314;48.272;11.562;2022-10-16T06:30:42;11.60;99.90
4604;DHT22;2314;48.272;11.562;2022-10-16T06:33:09;11.50;99.90
4604;DHT22;2314;48.272;11.562;2022-10-16T06:35:37;11.50;99.90
4604;DHT22;2314;48.272;11.562;2022-10-16T06:38:04;11.50;99.90
4604;DHT22;2314;48.272;11.562;2022-10-16T06:40:31;11.50;99.90
4604;DHT22;2314;48.272;11.562;2022-10-16T06:42:59;11.50;99.90
4604;DHT22;2314;48.272;11.562;2022-10-16T06:45:26;11.50;99.90
4604;DHT22;2314;48.272;11.562;2022-10-16T06:47:53;11.50;99.90
4604;DHT22;2314;48.272;11.562;2022-10-16T06:50:20;11.50;99.90
4604;DHT22;2314;48.272;11.562;2022-10-16T06:52:47;11.60;99.90
4604;DHT22;2314;48.272;11.562;2022-10-16T06:55:14;11.60;99.90
4604;DHT22;2314;48.272;11.562;2022-10-16T06:57:42;11.60;99.90
4604;DHT22;2314;48.272;11.562;2022-10-16T07:00:12;11.60;99.90
4604;DHT22;2314;48.272;11.562;2022-10-16T07:02:39;11.60;99.90
4604;DHT22;2314;48.272;11.562;2022-10-16T07:05:07;11.70;99.90
4604;DHT22;2314;48.272;11.562;2022-10-16T07:07:34;11.60;99.90
4604;DHT22;2314;48.272;11.562;2022-10-16T07:10:01;11.70;99.90
4604;DHT22;2314;48.272;11.562;2022-10-16T07:12:28;11.80;99.90
4604;DHT22;2314;48.272;11.562;2022-10-16T07:14:55;11.90;99.90
4604;DHT22;2314;48.272;11.562;2022-10-16T07:17:23;11.90;99.90
4604;DHT22;2314;48.272;11.562;2022-10-16T07:19:50;12.10;99.90
4604;DHT22;2314;48.272;11.562;2022-10-16T07:22:18;12.20;99.90
4604;DHT22;2314;48.272;11.562;2022-10-16T07:24:46;12.40;99.90
4604;DHT22;2314;48.272;11.562;2022-10-16T07:27:13;12.70;99.90
4604;DHT22;2314;48.272;11.562;2022-10-16T07:29:42;12.90;99.90
4604;DHT22;2314;48.272;11.562;2022-10-16T07:32:09;13.10;99.90
4604;DHT22;2314;48.272;11.562;2022-10-16T07:34:37;13.10;99.90
4604;DHT22;2314;48.272;11.562;2022-10-16T07:37:04;13.10;99.90
4604;DHT22;2314;48.272;11.562;2022-10-16T07:39:32;13.10;99.90
4604;DHT22;2314;48.272;11.562;2022-10-16T07:41:59;13.10;99.90
4604;DHT22;2314;48.272;11.562;2022-10-16T07:44:26;13.20;99.90
4604;DHT22;2314;48.272;11.562;2022-10-16T07:46:53;13.20;99.90
4604;DHT22;2314;48.272;11.562;2022-10-16T07:49:20;13.30;99.90
4604;DHT22;2314;48.272;11.562;2022-10-16T07:51:48;13.60;99.90
4604;DHT22;2314;48.272;11.562;2022-10-16T07:54:15;13.80;99.90
4604;DHT22;2314;48.272;11.562;2022-10-16T07:56:42;14.00;99.90
4604;DHT22;2314;48.272;11.562;2022-10-16T07:59:10;14.10;99.90
4604;DHT22;2314;48.272;11.562;2022-10-16T08:01:37;14.30;99.90
4604;DHT22;2314;48.272;11.562;2022-10-16T08:04:05;14.30;99.90
4604;DHT22;2314;48.272;11.562;2022-10-16T08:06:36;14.40;99.90
4604;DHT22;2314;48.272;11.562;2022-10-16T08:09:05;14.60;99.90
4604;DHT22;2314;48.272;11.562;2022-10-16T08:11:33;14.90;99.90
4604;DHT22;2314;48.272;11.562;2022-10-16T08:14:00;15.40;99.90
4604;DHT22;2314;48.272;11.562;2022-10-16T08:16:28;15.90;99.90
4604;DHT22;2314;48.272;11.562;2022-10-16T08:18:55;16.40;99.90
4604;DHT22;2314;48.272;11.562;2022-10-16T08:21:22;16.50;99.90
4604;DHT22;2314;48.272;11.562;2022-10-16T08:23:50;16.50;99.90
4604;DHT22;2314;48.272;11.562;2022-10-16T08:26:18;16.40;99.90
4604;DHT22;2314;48.272;11.562;2022-10-16T08:28:46;16.30;99.90
4604;DHT22;2314;48.272;11.562;2022-10-16T08:31:16;16.20;99.90
4604;DHT22;2314;48.272;11.562;2022-10-16T08:33:45;16.30;99.90
4604;DHT22;2314;48.272;11.562;2022-10-16T08:36:14;16.50;99.90
4604;DHT22;2314;48.272;11.562;2022-10-16T08:38:41;16.80;99.90
4604;DHT22;2314;48.272;11.562;2022-10-16T08:41:21;17.10;99.90
4604;DHT22;2314;48.272;11.562;2022-10-16T08:44:34;17.50;99.90
4604;DHT22;2314;48.272;11.562;2022-10-16T08:47:23;18.30;99.90
4604;DHT22;2314;48.272;11.562;2022-10-16T08:49:57;18.30;99.90
4604;DHT22;2314;48.272;11.562;2022-10-16T08:52:29;18.10;99.90
4604;DHT22;2314;48.272;11.562;2022-10-16T08:54:57;18.10;99.90
4604;DHT22;2314;48.272;11.562;2022-10-16T08:57:26;18.00;99.90
4604;DHT22;2314;48.272;11.562;2022-10-16T09:00:09;17.80;99.90
4604;DHT22;2314;48.272;11.562;2022-10-16T09:02:45;17.60;99.90
4604;DHT22;2314;48.272;11.562;2022-10-16T09:05:26;17.70;99.90
4604;DHT22;2314;48.272;11.562;2022-10-16T09:08:18;17.80;99.90
4604;DHT22;2314;48.272;11.562;2022-10-16T09:10:56;17.80;99.90
4604;DHT22;2314;48.272;11.562;2022-10-16T09:13:29;18.00;99.90
4604;DHT22;2314;48.272;11.562;2022-10-16T09:16:12;18.00;99.90
4604;DHT22;2314;48.272;11.562;2022-10-16T09:18:48;18.00;99.90
4604;DHT22;2314;48.272;11.562;2022-10-16T09:21:23;18.20;99.90
4604;DHT22;2314;48.272;11.562;2022-10-16T09:23:51;18.10;99.90
4604;DHT22;2314;48.272;11.562;2022-10-16T09:26:18;18.40;99.90
4604;DHT22;2314;48.272;11.562;2022-10-16T09:29:15;18.60;99.90
4604;DHT22;2314;48.272;11.562;2022-10-16T09:31:47;18.80;99.90
4604;DHT22;2314;48.272;11.562;2022-10-16T09:34:20;19.00;99.90
4604;DHT22;2314;48.272;11.562;2022-10-16T09:36:52;19.40;99.90
4604;DHT22;2314;48.272;11.562;2022-10-16T09:39:19;19.70;99.90
4604;DHT22;2314;48.272;11.562;2022-10-16T09:41:46;20.00;99.90
4604;DHT22;2314;48.272;11.562;2022-10-16T09:44:19;20.20;99.90
4604;DHT22;2314;48.272;11.562;2022-10-16T09:46:49;20.40;99.90
4604;DHT22;2314;48.272;11.562;2022-10-16T09:49:22;20.60;99.90
4604;DHT22;2314;48.272;11.562;2022-10-16T09:51:51;20.90;99.90
4604;DHT22;2314;48.272;11.562;2022-10-16T09:54:30;21.20;99.90
4604;DHT22;2314;48.272;11.562;2022-10-16T09:57:04;21.20;99.90
4604;DHT22;2314;48.272;11.562;2022-10-16T09:59:33;21.70;99.90
4604;DHT22;2314;48.272;11.562;2022-10-16T10:02:03;22.00;99.90
4604;DHT22;2314;48.272;11.562;2022-10-16T10:04:39;22.20;99.90
4604;DHT22;2314;48.272;11.562;2022-10-16T10:07:17;22.60;99.90
4604;DHT22;2314;48.272;11.562;2022-10-16T10:09:45;23.00;99.90
4604;DHT22;2314;48.272;11.562;2022-10-16T10:12:20;23.00;99.90
4604;DHT22;2314;48.272;11.562;2022-10-16T10:14:50;23.40;99.90
4604;DHT22;2314;48.272;11.562;2022-10-16T10:17:20;23.70;99.90
4604;DHT22;2314;48.272;11.562;2022-10-16T10:19:51;23.80;99.90
4604;DHT22;2314;48.272;11.562;2022-10-16T10:22:25;23.70;99.90
4604;DHT22;2314;48.272;11.562;2022-10-16T10:24:58;23.70;99.90
4604;DHT22;2314;48.272;11.562;2022-10-16T10:27:34;23.90;99.90
4604;DHT22;2314;48.272;11.562;2022-10-16T10:30:09;24.20;99.90
4604;DHT22;2314;48.272;11.562;2022-10-16T10:32:48;24.40;99.90
4604;DHT22;2314;48.272;11.562;2022-10-16T10:35:22;24.80;99.90
4604;DHT22;2314;48.272;11.562;2022-10-16T10:38:03;25.00;99.90
4604;DHT22;2314;48.272;11.562;2022-10-16T10:40:43;25.10;99.90
4604;DHT22;2314;48.272;11.562;2022-10-16T10:43:22;25.40;99.90
4604;DHT22;2314;48.272;11.562;2022-10-16T10:46:00;25.60;99.90
4604;DHT22;2314;48.272;11.562;2022-10-16T10:48:51;25.00;99.90
4604;DHT22;2314;48.272;11.562;2022-10-16T10:51:28;25.00;99.90
4604;DHT22;2314;48.272;11.562;2022-10-16T10:54:07;24.80;99.90
4604;DHT22;2314;48.272;11.562;2022-10-16T10:56:48;24.40;99.90
4604;DHT22;2314;48.272;11.562;2022-10-16T11:02:24;24.80;99.90
4604;DHT22;2314;48.272;11.562;2022-10-16T11:05:06;25.10;99.90
4604;DHT22;2314;48.272;11.562;2022-10-16T11:07:56;25.20;99.90
4604;DHT22;2314;48.272;11.562;2022-10-16T11:10:27;25.20;99.90
4604;DHT22;2314;48.272;11.562;2022-10-16T11:12:59;25.20;99.90
4604;DHT22;2314;48.272;11.562;2022-10-16T11:15:36;25.00;99.90
4604;DHT22;2314;48.272;11.562;2022-10-16T11:18:11;25.10;99.90
4604;DHT22;2314;48.272;11.562;2022-10-16T11:20:46;25.50;99.90
4604;DHT22;2314;48.272;11.562;2022-10-16T11:23:21;25.50;99.90
4604;DHT22;2314;48.272;11.562;2022-10-16T11:25:52;25.80;99.90
4604;DHT22;2314;48.272;11.562;2022-10-16T11:28:24;25.80;99.90
4604;DHT22;2314;48.272;11.562;2022-10-16T11:30:57;25.50;99.90
4604;DHT22;2314;48.272;11.562;2022-10-16T11:33:32;25.30;99.90
4604;DHT22;2314;48.272;11.562;2022-10-16T11:36:09;25.00;99.90
4604;DHT22;2314;48.272;11.562;2022-10-16T11:38:43;24.90;99.90
4604;DHT22;2314;48.272;11.562;2022-10-16T11:41:21;24.70;99.90
4604;DHT22;2314;48.272;11.562;2022-10-16T11:44:06;24.60;99.40
4604;DHT22;2314;48.272;11.562;2022-10-16T11:46:46;24.80;98.50
4604;DHT22;2314;48.272;11.562;2022-10-16T11:49:21;24.80;99.90
4604;DHT22;2314;48.272;11.562;2022-10-16T11:51:57;24.80;99.90
4604;DHT22;2314;48.272;11.562;2022-10-16T11:54:32;24.90;99.90
4604;DHT22;2314;48.272;11.562;2022-10-16T11:57:14;25.30;99.90
4604;DHT22;2314;48.272;11.562;2022-10-16T11:59:46;25.20;99.90
4604;DHT22;2314;48.272;11.562;2022-10-16T12:02:35;25.30;99.90
4604;DHT22;2314;48.272;11.562;2022-10-16T12:05:18;25.50;99.90
4604;DHT22;2314;48.272;11.562;2022-10-16T12:07:57;25.50;99.60
4604;DHT22;2314;48.272;11.562;2022-10-16T12:10:31;25.50;99.90
4604;DHT22;2314;48.272;11.562;2022-10-16T12:13:03;25.50;99.20
4604;DHT22;2314;48.272;11.562;2022-10-16T12:15:32;25.40;95.30
4604;DHT22;2314;48.272;11.562;2022-10-16T12:18:00;25.50;99.90
4604;DHT22;2314;48.272;11.562;2022-10-16T12:20:31;25.50;99.90
4604;DHT22;2314;48.272;11.562;2022-10-16T12:23:02;25.70;95.00
4604;DHT22;2314;48.272;11.562;2022-10-16T12:25:32;25.80;97.40
4604;DHT22;2314;48.272;11.562;2022-10-16T12:28:02;26.00;96.70
4604;DHT22;2314;48.272;11.562;2022-10-16T12:30:33;25.50;92.40
4604;DHT22;2314;48.272;11.562;2022-10-16T12:33:04;25.40;99.20
4604;DHT22;2314;48.272;11.562;2022-10-16T12:35:35;25.50;94.60
4604;DHT22;2314;48.272;11.562;2022-10-16T12:38:17;25.70;94.40
4604;DHT22;2314;48.272;11.562;2022-10-16T12:40:47;26.10;90.50
4604;DHT22;2314;48.272;11.562;2022-10-16T12:43:27;26.40;91.50
4604;DHT22;2314;48.272;11.562;2022-10-16T12:46:05;26.40;90.70
4604;DHT22;2314;48.272;11.562;2022-10-16T12:48:47;26.20;93.40
4604;DHT22;2314;48.272;11.562;2022-10-16T12:51:25;26.10;96.90
4604;DHT22;2314;48.272;11.562;2022-10-16T12:54:02;26.10;93.80
4604;DHT22;2314;48.272;11.562;2022-10-16T12:56:41;25.90;93.80
4604;DHT22;2314;48.272;11.562;2022-10-16T12:59:24;25.40;93.60
4604;DHT22;2314;48.272;11.562;2022-10-16T13:02:39;25.60;96.20
4604;DHT22;2314;48.272;11.562;2022-10-16T13:05:38;25.70;93.00
4604;DHT22;2314;48.272;11.562;2022-10-16T13:08:31;25.70;88.20
4604;DHT22;2314;48.272;11.562;2022-10-16T13:11:07;25.30;88.90
4604;DHT22;2314;48.272;11.562;2022-10-16T13:13:51;25.30;90.30
4604;DHT22;2314;48.272;11.562;2022-10-16T13:16:46;25.20;88.40
4604;DHT22;2314;48.272;11.562;2022-10-16T13:19:24;24.90;91.00
4604;DHT22;2314;48.272;11.562;2022-10-16T13:22:03;25.00;90.70
4604;DHT22;2314;48.272;11.562;2022-10-16T13:24:47;25.10;90.50
4604;DHT22;2314;48.272;11.562;2022-10-16T13:27:34;25.00;90.50
4604;DHT22;2314;48.272;11.562;2022-10-16T13:30:12;25.10;89.10
4604;DHT22;2314;48.272;11.562;2022-10-16T13:32:45;25.10;88.20
4604;DHT22;2314;48.272;11.562;2022-10-16T13:35:22;25.20;85.40
4604;DHT22;2314;48.272;11.562;2022-10-16T13:37:50;25.20;90.30
4604;DHT22;2314;48.272;11.562;2022-10-16T13:40:21;25.20;88.20
4604;DHT22;2314;48.272;11.562;2022-10-16T13:42:50;25.20;90.70
4604;DHT22;2314;48.272;11.562;2022-10-16T13:45:18;25.30;85.00
4604;DHT22;2314;48.272;11.562;2022-10-16T13:47:46;25.30;89.10
4604;DHT22;2314;48.272;11.562;2022-10-16T13:50:16;25.10;86.20
4604;DHT22;2314;48.272;11.562;2022-10-16T13:52:47;25.00;86.80
4604;DHT22;2314;48.272;11.562;2022-10-16T13:55:17;25.00;89.40
4604;DHT22;2314;48.272;11.562;2022-10-16T13:57:46;24.70;89.10
4604;DHT22;2314;48.272;11.562;2022-10-16T14:00:21;24.70;88.90
4604;DHT22;2314;48.272;11.562;2022-10-16T14:02:54;24.50;93.70
4604;DHT22;2314;48.272;11.562;2022-10-16T14:05:24;24.60;91.40
4604;DHT22;2314;48.272;11.562;2022-10-16T14:07:52;24.60;93.80
4604;DHT22;2314;48.272;11.562;2022-10-16T14:10:23;24.60;93.90
4604;DHT22;2314;48.272;11.562;2022-10-16T14:12:59;24.60;93.50
4604;DHT22;2314;48.272;11.562;2022-10-16T14:15:29;24.50;94.00
4604;DHT22;2314;48.272;11.562;2022-10-16T14:17:58;24.50;94.00
4604;DHT22;2314;48.272;11.562;2022-10-16T14:20:40;24.30;93.10
4604;DHT22;2314;48.272;11.562;2022-10-16T14:23:20;24.10;96.10
4604;DHT22;2314;48.272;11.562;2022-10-16T14:25:53;24.00;97.60
4604;DHT22;2314;48.272;11.562;2022-10-16T14:28:21;24.00;98.00
4604;DHT22;2314;48.272;11.562;2022-10-16T14:30:50;24.00;98.20
4604;DHT22;2314;48.272;11.562;2022-10-16T14:33:24;23.90;94.90
4604;DHT22;2314;48.272;11.562;2022-10-16T14:36:02;23.80;96.30
4604;DHT22;2314;48.272;11.562;2022-10-16T14:38:31;23.70;98.70
4604;DHT22;2314;48.272;11.562;2022-10-16T14:41:00;23.70;96.90
4604;DHT22;2314;48.272;11.562;2022-10-16T14:43:32;23.70;99.70
4604;DHT22;2314;48.272;11.562;2022-10-16T14:46:02;23.60;94.90
4604;DHT22;2314;48.272;11.562;2022-10-16T14:48:30;23.50;95.60
4604;DHT22;2314;48.272;11.562;2022-10-16T14:50:57;23.40;95.50
4604;DHT22;2314;48.272;11.562;2022-10-16T14:53:24;23.20;98.40
4604;DHT22;2314;48.272;11.562;2022-10-16T14:55:51;23.10;99.90
4604;DHT22;2314;48.272;11.562;2022-10-16T14:58:21;23.00;99.60
4604;DHT22;2314;48.272;11.562;2022-10-16T15:00:50;22.80;99.90
4604;DHT22;2314;48.272;11.562;2022-10-16T15:03:17;22.60;99.90
4604;DHT22;2314;48.272;11.562;2022-10-16T15:05:44;22.40;99.90
4604;DHT22;2314;48.272;11.562;2022-10-16T15:08:11;22.30;99.90
4604;DHT22;2314;48.272;11.562;2022-10-16T15:10:40;22.20;99.90
4604;DHT22;2314;48.272;11.562;2022-10-16T15:13:11;22.10;99.90
4604;DHT22;2314;48.272;11.562;2022-10-16T15:15:43;22.00;99.90
4604;DHT22;2314;48.272;11.562;2022-10-16T15:18:11;22.00;99.90
4604;DHT22;2314;48.272;11.562;2022-10-16T15:20:40;22.00;99.90
4604;DHT22;2314;48.272;11.562;2022-10-16T15:23:13;21.80;99.90
4604;DHT22;2314;48.272;11.562;2022-10-16T15:25:43;21.60;99.90
4604;DHT22;2314;48.272;11.562;2022-10-16T15:28:12;21.50;99.90
4604;DHT22;2314;48.272;11.562;2022-10-16T15:30:42;21.30;99.90
4604;DHT22;2314;48.272;11.562;2022-10-16T15:33:13;21.30;99.90
4604;DHT22;2314;48.272;11.562;2022-10-16T15:35:41;21.20;99.90
4604;DHT22;2314;48.272;11.562;2022-10-16T15:38:10;21.10;99.90
4604;DHT22;2314;48.272;11.562;2022-10-16T15:40:39;21.00;99.90
4604;DHT22;2314;48.272;11.562;2022-10-16T15:43:06;20.90;99.90
4604;DHT22;2314;48.272;11.562;2022-10-16T15:45:34;20.80;99.90
4604;DHT22;2314;48.272;11.562;2022-10-16T15:48:03;20.70;99.90
4604;DHT22;2314;48.272;11.562;2022-10-16T15:50:30;20.60;99.90
4604;DHT22;2314;48.272;11.562;2022-10-16T15:53:00;20.60;99.90
4604;DHT22;2314;48.272;11.562;2022-10-16T15:55:27;20.50;99.90
4604;DHT22;2314;48.272;11.562;2022-10-16T15:57:55;20.40;99.90
4604;DHT22;2314;48.272;11.562;2022-10-16T16:00:22;20.20;99.90
4604;DHT22;2314;48.272;11.562;2022-10-16T16:02:53;20.10;99.90
4604;DHT22;2314;48.272;11.562;2022-10-16T16:05:22;20.00;99.90
4604;DHT22;2314;48.272;11.562;2022-10-16T16:07:50;19.80;99.90
4604;DHT22;2314;48.272;11.562;2022-10-16T16:10:18;19.60;99.90
4604;DHT22;2314;48.272;11.562;2022-10-16T16:12:46;19.40;99.90